Terminal Aerodrome Forecast
Issued by NWS

Home | Current Version | Previous Version | Text Only | Print | Product List | Glossary On
Versions: 1 2 3 4 5 6 7 8 9 10 11 12 13 14 15 16 17 18
000
FTUS46 KMTR 272320
TAFSNS
TAF
KSNS 272320Z 2800/2824 27014KT P6SM SKC
     FM280300 28010KT P6SM SCT015
     FM280600 28009KT P6SM BKN012
     FM281000 VRB03KT P6SM OVC006
     FM281700 28005KT P6SM SCT010
     FM281900 29012KT P6SM SKC=

USA.gov is the U.S. government's official web portal to all federal, state and local government web resources and services.